Time;durP1;ratioP1;P1;durP2;ratioP2;P2;SDS_P1;SDS_P2;PMS_P1;PMS_P2;Temp;Humidity;BMP_temperature;BMP_pressure;BME280_temperature;BME280_humidity;BME280_pressure;Samples;Min_cycle;Max_cycle;Signal;HPM_P1;HPM_P2
2022/08/02 00:02:19;;;;;;;4.40;3.33;;;;;;;;;;5055057;28;20437;-52
2022/08/02 00:04:51;;;;;;;3.77;3.10;;;;;;;;;;5053358;28;20484;-51
2022/08/02 00:07:17;;;;;;;3.50;3.00;;;;;;;;;;5061859;28;20445;-52
2022/08/02 00:09:43;;;;;;;4.50;3.47;;;;;;;;;;5054545;28;20480;-52
2022/08/02 00:12:09;;;;;;;3.40;2.83;;;;;;;;;;5061058;28;20491;-51
2022/08/02 00:14:35;;;;;;;3.60;3.23;;;;;;;;;;5055546;28;21095;-52
2022/08/02 00:17:01;;;;;;;4.20;2.80;;;;;;;;;;5058751;28;20986;-51
2022/08/02 00:19:28;;;;;;;5.30;3.27;;;;;;;;;;5041553;28;20476;-53
2022/08/02 00:21:54;;;;;;;5.27;3.03;;;;;;;;;;5048554;28;20646;-53
2022/08/02 00:24:20;;;;;;;3.30;3.00;;;;;;;;;;5047378;28;20487;-53
2022/08/02 00:26:46;;;;;;;3.57;3.00;;;;;;;;;;5024864;28;20439;-53
2022/08/02 00:29:12;;;;;;;3.40;3.00;;;;;;;;;;5054508;28;20452;-54
2022/08/02 00:31:38;;;;;;;4.13;3.63;;;;;;;;;;5042711;28;20441;-51
2022/08/02 00:34:04;;;;;;;3.70;2.83;;;;;;;;;;5029856;28;21041;-52
2022/08/02 00:36:30;;;;;;;4.73;2.87;;;;;;;;;;5060176;28;20441;-52
2022/08/02 00:38:56;;;;;;;6.80;2.80;;;;;;;;;;5023440;28;20524;-52
2022/08/02 00:41:22;;;;;;;6.10;3.27;;;;;;;;;;5050750;28;20976;-52
2022/08/02 00:43:48;;;;;;;2.90;2.60;;;;;;;;;;5059387;28;20499;-52
2022/08/02 00:46:15;;;;;;;3.40;3.20;;;;;;;;;;5035230;28;20885;-53
2022/08/02 00:48:41;;;;;;;3.53;3.20;;;;;;;;;;5056944;28;20434;-53
2022/08/02 00:51:07;;;;;;;3.57;2.83;;;;;;;;;;5047188;28;20479;-52
2022/08/02 00:53:33;;;;;;;3.20;2.90;;;;;;;;;;5062641;28;20764;-52
2022/08/02 00:55:59;;;;;;;3.33;2.70;;;;;;;;;;5032563;28;20187;-52
2022/08/02 00:58:25;;;;;;;4.33;3.30;;;;;;;;;;5053793;28;20524;-53
2022/08/02 01:00:51;;;;;;;7.17;2.83;;;;;;;;;;5054681;28;20492;-52
2022/08/02 01:03:17;;;;;;;2.50;2.30;;;;;;;;;;5051743;28;20448;-53
2022/08/02 01:05:43;;;;;;;2.40;2.20;;;;;;;;;;5031827;28;20464;-52
2022/08/02 01:08:09;;;;;;;3.63;2.87;;;;;;;;;;5058024;28;20430;-52
2022/08/02 01:10:35;;;;;;;3.17;2.30;;;;;;;;;;4999281;28;21262;-53
2022/08/02 01:13:01;;;;;;;3.23;2.23;;;;;;;;;;5058357;28;20417;-53
2022/08/02 01:15:27;;;;;;;4.00;2.33;;;;;;;;;;5049819;28;20197;-53
2022/08/02 01:18:03;;;;;;;3.60;2.40;;;;;;;;;;5040888;28;20436;-53
2022/08/02 01:20:47;;;;;;;2.83;2.33;;;;;;;;;;5037046;28;20441;-53
2022/08/02 01:23:16;;;;;;;3.40;2.00;;;;;;;;;;5059267;28;20437;-53
2022/08/02 01:25:42;;;;;;;11.90;3.10;;;;;;;;;;5034999;28;20441;-53
2022/08/02 01:28:08;;;;;;;2.90;2.60;;;;;;;;;;5061351;28;20414;-52
2022/08/02 01:30:34;;;;;;;3.60;2.67;;;;;;;;;;5056849;28;20438;-52
2022/08/02 01:33:01;;;;;;;3.17;2.20;;;;;;;;;;5051694;28;20920;-52
2022/08/02 01:35:28;;;;;;;4.10;2.70;;;;;;;;;;5049472;28;20538;-58
2022/08/02 01:38:08;;;;;;;3.27;2.47;;;;;;;;;;5046421;28;20438;-53
2022/08/02 01:40:34;;;;;;;4.93;2.20;;;;;;;;;;5030296;28;20486;-54
2022/08/02 01:43:03;;;;;;;2.97;2.50;;;;;;;;;;5045352;28;20791;-53
2022/08/02 01:45:30;;;;;;;3.30;2.37;;;;;;;;;;5036278;28;21010;-52
2022/08/02 01:47:57;;;;;;;2.97;2.40;;;;;;;;;;5063793;28;20445;-53
2022/08/02 01:50:25;;;;;;;2.40;2.13;;;;;;;;;;5020934;28;20450;-53
2022/08/02 01:52:52;;;;;;;3.70;2.63;;;;;;;;;;5057310;28;20959;-53
2022/08/02 01:55:20;;;;;;;4.60;2.63;;;;;;;;;;5031552;28;20433;-53
2022/08/02 01:57:47;;;;;;;3.97;2.37;;;;;;;;;;5043570;28;20445;-52
2022/08/02 02:00:13;;;;;;;2.80;2.60;;;;;;;;;;5043179;28;20549;-51
2022/08/02 02:02:40;;;;;;;4.37;2.90;;;;;;;;;;5045108;28;20413;-55
2022/08/02 02:05:06;;;;;;;2.57;2.37;;;;;;;;;;5043584;28;20499;-52
2022/08/02 02:07:33;;;;;;;3.23;2.93;;;;;;;;;;5045824;28;20453;-51
2022/08/02 02:09:59;;;;;;;4.90;2.80;;;;;;;;;;5039357;28;20468;-51
2022/08/02 02:12:25;;;;;;;3.60;2.10;;;;;;;;;;5037552;28;20464;-51
2022/08/02 02:14:51;;;;;;;3.90;2.83;;;;;;;;;;5053973;28;21211;-53
2022/08/02 02:17:17;;;;;;;3.40;2.50;;;;;;;;;;5030717;28;20548;-52
2022/08/02 02:19:45;;;;;;;3.30;2.50;;;;;;;;;;5057433;28;20471;-53
2022/08/02 02:22:11;;;;;;;3.23;2.37;;;;;;;;;;5044799;28;20450;-52
2022/08/02 02:24:37;;;;;;;3.10;2.53;;;;;;;;;;5060057;28;20622;-53
2022/08/02 02:27:04;;;;;;;4.03;1.87;;;;;;;;;;5031156;28;21132;-53
2022/08/02 02:29:30;;;;;;;4.87;2.27;;;;;;;;;;5054075;28;20194;-53
2022/08/02 02:31:56;;;;;;;2.47;2.20;;;;;;;;;;5044250;28;20646;-52
2022/08/02 02:34:29;;;;;;;3.13;2.43;;;;;;;;;;5057693;28;20519;-53
2022/08/02 02:36:56;;;;;;;3.30;2.53;;;;;;;;;;5046431;28;20517;-52
2022/08/02 02:39:22;;;;;;;3.17;2.07;;;;;;;;;;5033839;28;20440;-52
2022/08/02 02:41:48;;;;;;;2.30;2.10;;;;;;;;;;5054581;28;20438;-52
2022/08/02 02:44:16;;;;;;;4.97;2.20;;;;;;;;;;5035008;28;20488;-53
2022/08/02 02:46:42;;;;;;;2.43;2.23;;;;;;;;;;5053450;28;20488;-52
2022/08/02 02:49:09;;;;;;;2.87;2.50;;;;;;;;;;5046605;28;20433;-52
2022/08/02 02:52:13;;;;;;;3.33;2.40;;;;;;;;;;5045700;28;20438;-52
2022/08/02 02:54:48;;;;;;;2.20;1.77;;;;;;;;;;5052292;28;20540;-52
2022/08/02 02:57:14;;;;;;;3.50;1.97;;;;;;;;;;5041968;28;20509;-53
2022/08/02 02:59:40;;;;;;;2.73;2.40;;;;;;;;;;5017239;28;20450;-52
2022/08/02 03:02:06;;;;;;;8.17;2.50;;;;;;;;;;5044698;28;20452;-52
2022/08/02 03:04:32;;;;;;;3.50;2.80;;;;;;;;;;5043487;28;20215;-52
2022/08/02 03:06:59;;;;;;;3.07;2.50;;;;;;;;;;5057353;28;20433;-52
2022/08/02 03:09:25;;;;;;;3.90;2.50;;;;;;;;;;5052860;28;20437;-52
2022/08/02 03:11:52;;;;;;;2.00;1.80;;;;;;;;;;5059893;28;20474;-52
2022/08/02 03:14:32;;;;;;;5.40;2.27;;;;;;;;;;5027252;28;20915;-52
2022/08/02 03:16:58;;;;;;;2.90;2.47;;;;;;;;;;5043635;28;20529;-52
2022/08/02 03:19:24;;;;;;;2.90;2.27;;;;;;;;;;5053492;28;20528;-52
2022/08/02 03:21:50;;;;;;;3.70;3.10;;;;;;;;;;5060243;28;20445;-53
2022/08/02 03:24:16;;;;;;;3.50;2.27;;;;;;;;;;5021106;28;20223;-53
2022/08/02 03:26:42;;;;;;;3.80;2.70;;;;;;;;;;5055327;28;20488;-52
2022/08/02 03:29:08;;;;;;;3.00;2.70;;;;;;;;;;5055872;28;20452;-53
2022/08/02 03:31:34;;;;;;;3.23;2.30;;;;;;;;;;5055078;28;20885;-52
2022/08/02 03:34:00;;;;;;;2.83;2.53;;;;;;;;;;5034201;28;20536;-53
2022/08/02 03:36:27;;;;;;;2.90;2.27;;;;;;;;;;5058790;28;20516;-52
2022/08/02 03:38:53;;;;;;;2.83;2.53;;;;;;;;;;5054670;28;20184;-52
2022/08/02 03:41:19;;;;;;;2.27;2.07;;;;;;;;;;5038022;28;20459;-52
2022/08/02 03:43:45;;;;;;;2.70;2.33;;;;;;;;;;5054261;28;20507;-52
2022/08/02 03:46:15;;;;;;;3.20;2.77;;;;;;;;;;5050842;28;20491;-51
2022/08/02 03:48:42;;;;;;;4.27;2.63;;;;;;;;;;5021584;28;20523;-51
2022/08/02 03:51:08;;;;;;;3.23;2.50;;;;;;;;;;5049674;28;20492;-52
2022/08/02 03:53:44;;;;;;;2.83;2.50;;;;;;;;;;5043862;28;20453;-53
2022/08/02 03:56:12;;;;;;;3.40;2.57;;;;;;;;;;5035415;28;20451;-52
2022/08/02 03:58:38;;;;;;;3.13;2.83;;;;;;;;;;5040084;28;20433;-53
2022/08/02 04:01:04;;;;;;;4.00;2.23;;;;;;;;;;5058345;28;20426;-52
2022/08/02 04:03:30;;;;;;;3.80;2.70;;;;;;;;;;5042747;28;20809;-54
2022/08/02 04:05:56;;;;;;;2.73;2.10;;;;;;;;;;5047959;28;20508;-53
2022/08/02 04:08:22;;;;;;;5.10;2.87;;;;;;;;;;5054251;28;20429;-53
2022/08/02 04:13:34;;;;;;;3.70;2.50;;;;;;;;;;5047068;28;20448;-53
2022/08/02 04:16:04;;;;;;;4.60;2.33;;;;;;;;;;5052795;28;21017;-53
2022/08/02 04:18:32;;;;;;;4.10;2.70;;;;;;;;;;5037176;28;20465;-53
2022/08/02 04:20:58;;;;;;;3.07;2.77;;;;;;;;;;5029392;28;20439;-51
2022/08/02 04:23:24;;;;;;;3.90;2.73;;;;;;;;;;5048742;28;20693;-53
2022/08/02 04:25:50;;;;;;;4.00;2.40;;;;;;;;;;5042322;28;20910;-53
2022/08/02 04:28:17;;;;;;;3.20;2.13;;;;;;;;;;5036268;28;20183;-52
2022/08/02 04:30:43;;;;;;;2.60;2.17;;;;;;;;;;5025818;28;21218;-52
2022/08/02 04:33:09;;;;;;;4.40;2.80;;;;;;;;;;5055333;28;20426;-52
2022/08/02 04:35:35;;;;;;;2.43;2.17;;;;;;;;;;5019704;28;20262;-52
2022/08/02 04:38:01;;;;;;;8.23;2.23;;;;;;;;;;5040355;28;20599;-52
2022/08/02 04:40:27;;;;;;;3.17;2.23;;;;;;;;;;5029419;28;20609;-52
2022/08/02 04:42:53;;;;;;;2.60;2.40;;;;;;;;;;5027254;28;21145;-54
2022/08/02 04:45:19;;;;;;;3.20;2.90;;;;;;;;;;5054850;28;20477;-52
2022/08/02 04:47:45;;;;;;;3.30;2.27;;;;;;;;;;5037901;28;20501;-51
2022/08/02 04:50:11;;;;;;;3.90;2.50;;;;;;;;;;5063202;28;20438;-52
2022/08/02 04:52:47;;;;;;;3.20;2.70;;;;;;;;;;5029161;28;20499;-53
2022/08/02 04:55:13;;;;;;;4.00;2.60;;;;;;;;;;5042996;28;20442;-52
2022/08/02 04:57:56;;;;;;;3.67;2.37;;;;;;;;;;5038939;28;20468;-52
2022/08/02 05:00:22;;;;;;;6.70;3.20;;;;;;;;;;5063527;28;20441;-52
2022/08/02 05:02:48;;;;;;;4.60;3.20;;;;;;;;;;5019572;28;21134;-52
2022/08/02 05:05:14;;;;;;;6.40;2.73;;;;;;;;;;5061557;28;20564;-54
2022/08/02 05:07:46;;;;;;;3.37;2.60;;;;;;;;;;5024424;28;20488;-51
2022/08/02 05:10:13;;;;;;;2.90;2.60;;;;;;;;;;5026222;28;20445;-53
2022/08/02 05:12:39;;;;;;;5.17;3.00;;;;;;;;;;5046309;28;20519;-52
2022/08/02 05:15:05;;;;;;;4.10;2.63;;;;;;;;;;5057966;28;20436;-53
2022/08/02 05:17:31;;;;;;;4.40;3.20;;;;;;;;;;5061281;28;20430;-53
2022/08/02 05:20:00;;;;;;;3.20;2.90;;;;;;;;;;5047573;28;20468;-53
2022/08/02 05:22:26;;;;;;;5.00;3.73;;;;;;;;;;5056927;28;20179;-52
2022/08/02 05:24:52;;;;;;;5.03;3.10;;;;;;;;;;5035871;28;20481;-52
2022/08/02 05:27:18;;;;;;;3.17;2.87;;;;;;;;;;5053420;28;20985;-53
2022/08/02 05:29:44;;;;;;;2.87;2.43;;;;;;;;;;5036541;28;20456;-51
2022/08/02 05:32:10;;;;;;;5.20;2.87;;;;;;;;;;5054727;28;20446;-53
2022/08/02 05:34:36;;;;;;;4.47;2.93;;;;;;;;;;5019793;28;20456;-52
2022/08/02 05:37:02;;;;;;;5.57;2.80;;;;;;;;;;5057858;28;20793;-52
2022/08/02 05:39:31;;;;;;;3.00;2.53;;;;;;;;;;5034395;28;20481;-53
2022/08/02 05:41:58;;;;;;;5.87;3.17;;;;;;;;;;5041162;28;20920;-55
2022/08/02 05:44:32;;;;;;;5.27;2.97;;;;;;;;;;5033940;28;20516;-52
2022/08/02 05:49:55;;;;;;;4.00;3.30;;;;;;;;;;5039986;28;20969;-51
2022/08/02 05:52:37;;;;;;;3.80;2.90;;;;;;;;;;5048958;28;21217;-52
2022/08/02 05:55:15;;;;;;;4.80;3.33;;;;;;;;;;5049933;28;20754;-52
2022/08/02 06:00:46;;;;;;;3.70;3.10;;;;;;;;;;5035420;28;20494;-53
2022/08/02 06:03:15;;;;;;;3.43;2.90;;;;;;;;;;5045949;28;20421;-55
2022/08/02 06:05:45;;;;;;;3.60;2.97;;;;;;;;;;5031887;28;20466;-54
2022/08/02 06:08:13;;;;;;;3.20;2.83;;;;;;;;;;5023039;28;20501;-52
2022/08/02 06:10:39;;;;;;;3.13;2.93;;;;;;;;;;5039395;28;20449;-52
2022/08/02 06:13:08;;;;;;;2.87;2.57;;;;;;;;;;5056799;28;20506;-51
2022/08/02 06:15:36;;;;;;;5.47;3.47;;;;;;;;;;5032814;28;20476;-53
2022/08/02 06:18:03;;;;;;;4.23;2.73;;;;;;;;;;5056568;28;20921;-54
2022/08/02 06:20:34;;;;;;;3.53;3.23;;;;;;;;;;5033760;28;21034;-51
2022/08/02 06:23:00;;;;;;;6.97;3.73;;;;;;;;;;5041515;28;20564;-52
2022/08/02 06:25:27;;;;;;;6.60;3.57;;;;;;;;;;5050460;28;20477;-52
2022/08/02 06:28:04;;;;;;;3.80;2.70;;;;;;;;;;5035894;28;21015;-54
2022/08/02 07:47:03;;;;;;;4.93;4.43;;;;;;;;;;6119405;22;2677958;-51
2022/08/02 07:49:29;;;;;;;4.47;4.07;;;;;;;;;;6230002;23;20163;-50
2022/08/02 07:54:29;;;;;;;5.00;3.97;;;;;;;;;;6059909;23;20450;-51
2022/08/02 07:57:52;;;;;;;4.50;4.10;;;;;;;;;;6163250;23;20694;-53
2022/08/02 08:00:20;;;;;;;5.87;4.27;;;;;;;;;;6152684;23;20430;-51
2022/08/02 08:02:47;;;;;;;4.33;3.90;;;;;;;;;;6162235;23;20676;-53
2022/08/02 08:05:13;;;;;;;5.67;3.43;;;;;;;;;;6171314;23;20380;-52
2022/08/02 08:07:39;;;;;;;5.43;3.50;;;;;;;;;;6161058;23;20457;-52
2022/08/02 08:10:11;;;;;;;5.60;3.63;;;;;;;;;;6169296;23;20711;-53
2022/08/02 08:12:38;;;;;;;4.00;3.70;;;;;;;;;;6163180;23;20999;-54
2022/08/02 08:15:11;;;;;;;4.57;4.17;;;;;;;;;;6145742;23;20372;-53
2022/08/02 08:17:52;;;;;;;5.13;4.40;;;;;;;;;;6155109;23;20715;-53
2022/08/02 08:20:18;;;;;;;5.40;4.20;;;;;;;;;;6173600;23;20439;-53
2022/08/02 08:22:52;;;;;;;4.60;4.10;;;;;;;;;;6165192;23;20394;-53
2022/08/02 08:25:20;;;;;;;4.73;3.97;;;;;;;;;;6167751;23;20383;-51
2022/08/02 08:27:50;;;;;;;4.43;4.03;;;;;;;;;;6162338;23;20435;-52
2022/08/02 08:30:16;;;;;;;5.10;4.60;;;;;;;;;;6172225;23;20854;-51
2022/08/02 08:33:25;;;;;;;5.40;4.13;;;;;;;;;;6156671;23;20429;-53
2022/08/02 08:35:51;;;;;;;8.13;4.27;;;;;;;;;;6167185;23;20390;-51
2022/08/02 08:38:17;;;;;;;4.97;4.53;;;;;;;;;;6162725;23;20402;-52
2022/08/02 08:40:44;;;;;;;5.37;4.87;;;;;;;;;;6167096;23;20467;-51
2022/08/02 08:43:12;;;;;;;6.90;4.70;;;;;;;;;;6156176;23;20450;-51
2022/08/02 08:45:38;;;;;;;4.97;4.43;;;;;;;;;;6164366;23;20452;-52
2022/08/02 08:48:08;;;;;;;5.90;4.90;;;;;;;;;;6156282;23;20548;-51
2022/08/02 08:50:34;;;;;;;5.77;4.80;;;;;;;;;;6158702;23;20540;-51
2022/08/02 08:53:04;;;;;;;5.90;4.77;;;;;;;;;;6102847;23;20624;-53
2022/08/02 08:55:30;;;;;;;4.87;4.20;;;;;;;;;;6139368;23;20428;-52
2022/08/02 08:57:57;;;;;;;5.77;4.80;;;;;;;;;;6156656;23;20380;-51
2022/08/02 09:00:23;;;;;;;5.00;4.50;;;;;;;;;;6161667;23;20379;-51
2022/08/02 09:02:52;;;;;;;5.80;4.70;;;;;;;;;;6143833;23;20681;-55
2022/08/02 09:05:18;;;;;;;4.67;4.23;;;;;;;;;;6161163;23;20750;-52
2022/08/02 09:07:47;;;;;;;5.73;4.63;;;;;;;;;;6160864;23;20431;-51
2022/08/02 09:10:32;;;;;;;6.40;5.60;;;;;;;;;;6168151;23;20395;-52
2022/08/02 09:13:08;;;;;;;5.50;4.80;;;;;;;;;;6159477;23;20439;-51
2022/08/02 09:15:34;;;;;;;5.93;5.37;;;;;;;;;;6163514;23;20549;-51
2022/08/02 09:18:02;;;;;;;5.90;5.40;;;;;;;;;;6156924;23;20378;-53
2022/08/02 09:20:28;;;;;;;6.60;5.50;;;;;;;;;;6171558;23;20372;-51
2022/08/02 09:23:07;;;;;;;6.87;4.73;;;;;;;;;;6160881;23;20463;-51
2022/08/02 09:25:33;;;;;;;5.40;4.83;;;;;;;;;;6166624;23;20540;-51
2022/08/02 09:28:07;;;;;;;5.20;4.53;;;;;;;;;;6142806;23;20755;-53
2022/08/02 09:30:42;;;;;;;7.30;5.17;;;;;;;;;;6135295;23;20400;-51
2022/08/02 09:33:08;;;;;;;5.80;5.27;;;;;;;;;;6130814;23;20368;-52
2022/08/02 09:35:35;;;;;;;5.60;5.10;;;;;;;;;;6164656;23;20379;-52
2022/08/02 09:38:10;;;;;;;5.37;4.87;;;;;;;;;;6160325;23;20384;-54
2022/08/02 09:40:37;;;;;;;5.53;4.73;;;;;;;;;;6160281;23;20448;-51
2022/08/02 09:43:09;;;;;;;5.67;5.10;;;;;;;;;;6148094;23;20416;-55
2022/08/02 09:45:47;;;;;;;6.30;5.37;;;;;;;;;;6155569;23;20699;-53
2022/08/02 09:48:20;;;;;;;6.57;5.00;;;;;;;;;;6158077;23;20787;-52
2022/08/02 09:50:46;;;;;;;5.37;4.87;;;;;;;;;;6160205;23;20444;-53
2022/08/02 09:53:14;;;;;;;6.13;5.53;;;;;;;;;;6161680;23;20687;-53
2022/08/02 09:55:40;;;;;;;6.07;4.83;;;;;;;;;;6172050;23;20420;-52
2022/08/02 09:58:19;;;;;;;6.30;5.23;;;;;;;;;;6143297;23;20434;-54
2022/08/02 10:01:01;;;;;;;6.70;4.90;;;;;;;;;;6149553;23;20495;-52
2022/08/02 10:03:27;;;;;;;6.87;5.03;;;;;;;;;;6164408;23;20474;-52
2022/08/02 10:05:57;;;;;;;5.27;4.87;;;;;;;;;;6173312;23;20805;-53
2022/08/02 10:08:24;;;;;;;8.17;4.50;;;;;;;;;;6135881;23;20440;-52
2022/08/02 10:10:59;;;;;;;5.40;4.90;;;;;;;;;;6175579;23;20463;-52
2022/08/02 10:13:25;;;;;;;5.90;5.30;;;;;;;;;;6163784;23;20944;-53
2022/08/02 10:15:51;;;;;;;7.03;5.60;;;;;;;;;;6145361;23;20368;-52
2022/08/02 10:18:17;;;;;;;8.40;5.90;;;;;;;;;;6135752;23;20437;-52
2022/08/02 10:20:44;;;;;;;4.80;4.30;;;;;;;;;;6148946;23;20376;-52
2022/08/02 10:23:10;;;;;;;5.80;5.30;;;;;;;;;;6137727;23;20386;-53
2022/08/02 10:25:38;;;;;;;6.43;5.83;;;;;;;;;;6173610;23;20365;-52
2022/08/02 10:28:08;;;;;;;7.23;4.90;;;;;;;;;;6163106;23;20824;-51
2022/08/02 10:30:34;;;;;;;4.83;4.43;;;;;;;;;;6171310;23;20375;-50
2022/08/02 10:33:00;;;;;;;5.00;4.57;;;;;;;;;;6153037;23;20406;-52
2022/08/02 10:35:31;;;;;;;5.73;5.13;;;;;;;;;;6178948;23;20455;-52
2022/08/02 10:37:59;;;;;;;5.90;5.30;;;;;;;;;;6137671;23;20419;-51
2022/08/02 10:40:25;;;;;;;5.90;4.33;;;;;;;;;;6143057;23;20369;-51
2022/08/02 10:42:59;;;;;;;4.90;4.40;;;;;;;;;;6100528;23;20491;-53
2022/08/02 10:45:25;;;;;;;4.50;4.10;;;;;;;;;;6148174;23;20395;-53
2022/08/02 10:48:19;;;;;;;4.90;4.50;;;;;;;;;;6168980;23;20436;-53
2022/08/02 10:50:45;;;;;;;4.70;4.30;;;;;;;;;;6172984;23;20377;-52
2022/08/02 10:53:20;;;;;;;5.77;4.90;;;;;;;;;;6164153;23;20403;-52
2022/08/02 10:55:46;;;;;;;4.33;3.93;;;;;;;;;;6168196;23;20932;-52
2022/08/02 10:58:17;;;;;;;7.53;4.83;;;;;;;;;;6163820;23;20892;-52
2022/08/02 11:00:44;;;;;;;7.00;5.10;;;;;;;;;;6177802;23;20878;-52
2022/08/02 11:03:28;;;;;;;5.10;4.60;;;;;;;;;;6165426;23;20384;-54
2022/08/02 11:06:18;;;;;;;5.00;4.40;;;;;;;;;;6174436;23;20411;-52
2022/08/02 11:08:44;;;;;;;8.90;4.60;;;;;;;;;;6120466;23;21105;-53
2022/08/02 11:11:20;;;;;;;4.60;3.77;;;;;;;;;;6173882;23;20447;-53
2022/08/02 11:14:07;;;;;;;5.03;4.50;;;;;;;;;;6138837;23;20391;-53
2022/08/02 11:17:04;;;;;;;4.90;4.10;;;;;;;;;;6176761;23;20399;-53
2022/08/02 11:19:30;;;;;;;6.40;4.80;;;;;;;;;;6139659;23;20455;-52
2022/08/02 11:22:04;;;;;;;5.30;4.80;;;;;;;;;;6170891;23;20368;-53
2022/08/02 11:24:35;;;;;;;5.10;4.60;;;;;;;;;;6165837;23;20392;-54
2022/08/02 11:27:02;;;;;;;6.13;4.30;;;;;;;;;;6170975;23;20446;-52
2022/08/02 11:29:34;;;;;;;4.60;4.20;;;;;;;;;;6167975;23;20376;-51
2022/08/02 11:32:09;;;;;;;4.50;4.10;;;;;;;;;;6170987;23;20380;-53
2022/08/02 11:34:35;;;;;;;5.03;4.07;;;;;;;;;;6169851;23;20383;-54
2022/08/02 11:37:01;;;;;;;7.43;4.70;;;;;;;;;;6134287;23;20548;-53
2022/08/02 11:39:27;;;;;;;4.10;3.70;;;;;;;;;;6158335;23;20455;-53
2022/08/02 11:41:55;;;;;;;5.63;4.13;;;;;;;;;;6137699;23;20481;-53
2022/08/02 11:44:21;;;;;;;3.90;3.60;;;;;;;;;;6166051;23;20488;-53
2022/08/02 11:47:01;;;;;;;4.13;3.73;;;;;;;;;;6139718;23;20420;-53
2022/08/02 11:49:27;;;;;;;4.80;4.40;;;;;;;;;;6158749;23;20164;-53
2022/08/02 11:52:03;;;;;;;4.27;3.87;;;;;;;;;;6171962;23;20438;-53
2022/08/02 11:54:42;;;;;;;4.30;3.90;;;;;;;;;;6107964;23;20961;-54
2022/08/02 11:57:20;;;;;;;4.30;4.00;;;;;;;;;;6125244;23;20427;-54
2022/08/02 11:59:47;;;;;;;5.90;4.43;;;;;;;;;;6168175;23;20402;-54
2022/08/02 12:02:13;;;;;;;4.07;3.70;;;;;;;;;;6168633;23;20435;-53
2022/08/02 12:04:41;;;;;;;4.00;3.70;;;;;;;;;;6173175;23;20392;-53
2022/08/02 12:07:17;;;;;;;3.93;3.63;;;;;;;;;;6167995;23;20430;-53
2022/08/02 12:09:44;;;;;;;4.37;4.07;;;;;;;;;;6172367;23;20422;-54
2022/08/02 12:12:28;;;;;;;6.83;4.40;;;;;;;;;;6164868;23;20742;-55
2022/08/02 12:15:13;;;;;;;4.10;3.70;;;;;;;;;;6170395;23;20419;-53
2022/08/02 12:20:34;;;;;;;5.00;4.10;;;;;;;;;;6170609;23;20383;-54
2022/08/02 12:23:03;;;;;;;4.27;3.93;;;;;;;;;;6169581;23;20790;-54
2022/08/02 12:25:30;;;;;;;4.80;4.07;;;;;;;;;;6168194;23;20372;-54
2022/08/02 12:28:12;;;;;;;12.77;3.83;;;;;;;;;;6166657;23;20960;-54
2022/08/02 12:30:50;;;;;;;4.53;4.13;;;;;;;;;;6178796;23;20372;-53
2022/08/02 12:33:16;;;;;;;4.30;3.63;;;;;;;;;;6144852;23;20414;-54
2022/08/02 12:35:42;;;;;;;4.60;4.10;;;;;;;;;;6175550;23;20372;-54
2022/08/02 12:38:09;;;;;;;5.53;4.23;;;;;;;;;;6144137;23;20387;-54
2022/08/02 12:40:35;;;;;;;4.80;4.30;;;;;;;;;;6176664;23;20145;-54
2022/08/02 12:43:02;;;;;;;4.77;4.37;;;;;;;;;;6153473;23;20400;-54
2022/08/02 12:45:29;;;;;;;4.90;4.40;;;;;;;;;;6176315;23;20384;-54
2022/08/02 12:47:55;;;;;;;6.50;4.90;;;;;;;;;;6144097;23;20485;-54
2022/08/02 12:50:29;;;;;;;4.67;3.57;;;;;;;;;;6178277;23;20443;-53
2022/08/02 12:53:04;;;;;;;4.27;3.87;;;;;;;;;;6155695;23;20419;-54
2022/08/02 12:55:30;;;;;;;4.10;3.53;;;;;;;;;;6173803;23;20902;-52
2022/08/02 12:57:57;;;;;;;5.73;3.97;;;;;;;;;;6170416;23;20412;-53
2022/08/02 13:00:25;;;;;;;4.13;3.83;;;;;;;;;;6179707;23;20380;-54
2022/08/02 13:02:51;;;;;;;4.63;3.63;;;;;;;;;;6170844;23;20360;-53
2022/08/02 13:05:17;;;;;;;3.60;3.30;;;;;;;;;;6181495;23;20379;-54
2022/08/02 13:07:43;;;;;;;4.00;3.70;;;;;;;;;;6170378;23;21061;-53
2022/08/02 13:10:09;;;;;;;3.43;3.03;;;;;;;;;;6177743;23;20379;-53
2022/08/02 13:12:38;;;;;;;3.73;3.43;;;;;;;;;;6148191;23;20183;-54
2022/08/02 13:15:04;;;;;;;5.60;3.67;;;;;;;;;;6176719;23;20371;-54
2022/08/02 13:17:30;;;;;;;4.10;3.70;;;;;;;;;;6170565;23;20368;-54
2022/08/02 13:19:56;;;;;;;4.83;4.43;;;;;;;;;;6176602;23;20395;-54
2022/08/02 13:22:22;;;;;;;3.47;3.17;;;;;;;;;;6155935;23;20819;-53
2022/08/02 13:24:50;;;;;;;3.63;3.33;;;;;;;;;;6174613;23;20151;-54
2022/08/02 13:27:16;;;;;;;3.50;3.20;;;;;;;;;;6167431;23;20831;-54
2022/08/02 13:29:42;;;;;;;3.93;3.53;;;;;;;;;;6173910;23;20985;-53
2022/08/02 13:32:08;;;;;;;3.40;3.10;;;;;;;;;;6170797;23;20954;-54
2022/08/02 13:34:34;;;;;;;4.13;3.20;;;;;;;;;;6173000;23;20360;-53
2022/08/02 13:37:00;;;;;;;4.00;3.60;;;;;;;;;;6173062;23;21026;-53
2022/08/02 13:39:26;;;;;;;4.47;3.70;;;;;;;;;;6173608;23;20652;-53
2022/08/02 13:41:52;;;;;;;4.87;3.27;;;;;;;;;;6174611;23;20399;-53
2022/08/02 13:44:18;;;;;;;3.93;3.37;;;;;;;;;;6171287;23;20911;-53
2022/08/02 13:46:44;;;;;;;4.00;3.70;;;;;;;;;;6173416;23;20428;-54
2022/08/02 13:49:10;;;;;;;4.40;3.43;;;;;;;;;;6153852;23;20149;-53
2022/08/02 13:51:36;;;;;;;3.97;3.30;;;;;;;;;;6176790;23;20376;-53
2022/08/02 13:54:02;;;;;;;5.03;2.90;;;;;;;;;;6151719;23;20609;-53
2022/08/02 13:56:28;;;;;;;4.10;3.57;;;;;;;;;;6174549;23;20200;-53
2022/08/02 13:58:54;;;;;;;3.97;3.57;;;;;;;;;;6143711;23;20376;-53
2022/08/02 14:01:20;;;;;;;3.67;3.17;;;;;;;;;;6151855;23;20215;-53
2022/08/02 14:03:46;;;;;;;3.80;3.50;;;;;;;;;;6169810;23;21255;-53
2022/08/02 14:06:12;;;;;;;3.00;2.70;;;;;;;;;;6148251;23;20380;-53
2022/08/02 14:08:38;;;;;;;4.20;3.20;;;;;;;;;;6168886;23;20427;-53
2022/08/02 14:11:04;;;;;;;3.70;3.40;;;;;;;;;;6174239;23;20846;-53
2022/08/02 14:13:30;;;;;;;4.80;3.40;;;;;;;;;;6170017;23;20736;-53
2022/08/02 14:15:56;;;;;;;3.37;3.07;;;;;;;;;;6177010;23;20375;-53
2022/08/02 14:18:22;;;;;;;3.23;2.93;;;;;;;;;;6170599;23;20376;-53
2022/08/02 14:20:47;;;;;;;4.40;3.17;;;;;;;;;;6174901;23;21005;-53
2022/08/02 14:23:16;;;;;;;4.20;2.90;;;;;;;;;;6151774;23;20471;-52
2022/08/02 14:25:42;;;;;;;3.23;2.93;;;;;;;;;;6175853;23;20796;-53
2022/08/02 14:28:08;;;;;;;3.30;3.00;;;;;;;;;;6151995;23;20439;-53
2022/08/02 14:30:34;;;;;;;3.23;2.93;;;;;;;;;;6171504;23;20364;-53
2022/08/02 14:33:00;;;;;;;7.10;3.10;;;;;;;;;;6169007;23;20379;-55
2022/08/02 14:35:26;;;;;;;3.37;2.97;;;;;;;;;;6177964;23;20364;-53
2022/08/02 14:37:52;;;;;;;3.43;3.03;;;;;;;;;;6168801;23;20372;-54
2022/08/02 14:40:18;;;;;;;5.07;2.93;;;;;;;;;;6176016;23;20197;-54
2022/08/02 14:42:44;;;;;;;3.33;2.60;;;;;;;;;;6168248;23;20448;-54
2022/08/02 14:45:10;;;;;;;4.90;2.93;;;;;;;;;;6177605;23;20621;-55
2022/08/02 14:47:36;;;;;;;6.83;3.17;;;;;;;;;;6169058;23;20511;-54
2022/08/02 14:50:02;;;;;;;3.47;3.17;;;;;;;;;;6175995;23;20145;-54
2022/08/02 14:52:28;;;;;;;4.27;3.60;;;;;;;;;;6171762;23;20379;-54
2022/08/02 14:54:55;;;;;;;4.03;3.27;;;;;;;;;;6173217;23;20423;-54
2022/08/02 14:57:21;;;;;;;3.80;3.43;;;;;;;;;;6147041;23;20156;-54
2022/08/02 14:59:47;;;;;;;4.10;3.70;;;;;;;;;;6171658;23;20387;-54
2022/08/02 15:02:13;;;;;;;5.97;3.87;;;;;;;;;;6158436;23;20380;-54
2022/08/02 15:04:39;;;;;;;3.63;3.33;;;;;;;;;;6167838;23;20227;-54
2022/08/02 15:07:05;;;;;;;3.73;3.33;;;;;;;;;;6170895;23;20427;-52
2022/08/02 15:09:31;;;;;;;3.30;3.00;;;;;;;;;;6171710;23;20423;-54
2022/08/02 15:11:57;;;;;;;5.10;2.90;;;;;;;;;;6172078;23;20360;-54
2022/08/02 15:14:23;;;;;;;3.37;3.07;;;;;;;;;;6170644;23;20511;-54
2022/08/02 15:16:49;;;;;;;3.60;3.30;;;;;;;;;;6172550;23;20380;-53
2022/08/02 15:19:15;;;;;;;3.90;3.30;;;;;;;;;;6169171;23;20921;-54
2022/08/02 15:21:41;;;;;;;3.63;3.20;;;;;;;;;;6175202;23;20462;-53
2022/08/02 15:24:07;;;;;;;4.30;3.20;;;;;;;;;;6162178;23;20391;-54
2022/08/02 15:26:33;;;;;;;3.90;3.30;;;;;;;;;;6172015;23;20427;-53
2022/08/02 15:28:59;;;;;;;3.00;2.70;;;;;;;;;;6150126;23;20391;-52
2022/08/02 15:31:25;;;;;;;3.83;3.53;;;;;;;;;;6176074;23;20168;-54
2022/08/02 15:33:51;;;;;;;4.40;2.87;;;;;;;;;;6164089;23;20423;-54
2022/08/02 15:36:21;;;;;;;6.50;2.70;;;;;;;;;;6176006;23;20399;-54
2022/08/02 15:38:47;;;;;;;3.20;2.90;;;;;;;;;;6116838;23;20388;-53
2022/08/02 15:41:13;;;;;;;3.27;2.90;;;;;;;;;;6176846;23;20391;-52
2022/08/02 15:43:39;;;;;;;2.93;2.40;;;;;;;;;;6167207;23;20368;-53
2022/08/02 15:46:05;;;;;;;3.30;3.00;;;;;;;;;;6175670;23;20260;-53
2022/08/02 15:48:31;;;;;;;3.27;2.97;;;;;;;;;;6171320;23;20449;-53
2022/08/02 15:50:57;;;;;;;3.10;2.60;;;;;;;;;;6178279;23;20392;-54
2022/08/02 15:53:23;;;;;;;5.30;2.80;;;;;;;;;;6173777;23;20378;-54
2022/08/02 15:55:49;;;;;;;6.00;3.13;;;;;;;;;;6177099;23;20447;-53
2022/08/02 15:58:15;;;;;;;3.43;3.13;;;;;;;;;;6151395;23;20471;-54
2022/08/02 16:00:41;;;;;;;7.00;3.93;;;;;;;;;;6175167;23;20430;-53
2022/08/02 16:03:07;;;;;;;3.17;2.80;;;;;;;;;;6154172;23;20364;-53
2022/08/02 16:05:33;;;;;;;3.30;3.00;;;;;;;;;;6179132;23;20239;-52
2022/08/02 16:07:59;;;;;;;10.97;4.87;;;;;;;;;;6172801;23;20489;-53
2022/08/02 16:10:25;;;;;;;6.73;2.90;;;;;;;;;;6153049;23;20365;-53
2022/08/02 16:12:52;;;;;;;4.10;2.90;;;;;;;;;;6172340;23;20871;-53
2022/08/02 16:15:38;;;;;;;3.80;3.10;;;;;;;;;;6172977;23;20404;-54
2022/08/02 16:18:04;;;;;;;3.87;3.13;;;;;;;;;;6165864;23;20398;-54
2022/08/02 16:20:30;;;;;;;3.97;3.30;;;;;;;;;;6171526;23;20152;-53
2022/08/02 16:22:56;;;;;;;3.80;2.87;;;;;;;;;;6162640;23;20690;-53